sensor_id;sensor_type;location;lat;lon;timestamp;pressure;altitude;pressure_sealevel;temperature;humidity
1616;BME280;801;47.982;7.810;2022-10-16T15:28:30;98738.56;;;29.22;40.45
1616;BME280;801;47.982;7.810;2022-10-16T15:30:57;98733.13;;;29.36;41.34
1616;BME280;801;47.982;7.810;2022-10-16T15:33:26;98738.34;;;28.66;41.63
1616;BME280;801;47.982;7.810;2022-10-16T15:35:58;98738.41;;;28.40;42.30
1616;BME280;801;47.982;7.810;2022-10-16T15:41:47;98732.13;;;27.59;46.21
1616;BME280;801;47.982;7.810;2022-10-16T15:44:17;98732.72;;;27.45;45.48
1616;BME280;801;47.982;7.810;2022-10-16T15:46:43;98735.34;;;27.38;46.58
1616;BME280;801;47.982;7.810;2022-10-16T15:49:11;98736.97;;;27.66;46.35
1616;BME280;801;47.982;7.810;2022-10-16T15:51:39;98741.00;;;27.72;45.98
1616;BME280;801;47.982;7.810;2022-10-16T15:54:06;98744.13;;;27.93;47.82
1616;BME280;801;47.982;7.810;2022-10-16T15:56:32;98745.63;;;27.64;50.52
1616;BME280;801;47.982;7.810;2022-10-16T15:59:02;98751.69;;;27.73;53.37
1616;BME280;801;47.982;7.810;2022-10-16T16:01:33;98751.53;;;27.63;54.01
1616;BME280;801;47.982;7.810;2022-10-16T16:04:00;98754.03;;;27.48;55.30
1616;BME280;801;47.982;7.810;2022-10-16T16:06:26;98747.84;;;27.55;56.14
1616;BME280;801;47.982;7.810;2022-10-16T16:08:53;98756.50;;;27.53;57.01
1616;BME280;801;47.982;7.810;2022-10-16T16:11:20;98751.72;;;27.27;62.64
1616;BME280;801;47.982;7.810;2022-10-16T16:13:48;98757.41;;;27.15;66.00
1616;BME280;801;47.982;7.810;2022-10-16T16:16:16;98753.06;;;26.95;70.41
1616;BME280;801;47.982;7.810;2022-10-16T16:18:46;98750.91;;;26.45;75.97
1616;BME280;801;47.982;7.810;2022-10-16T16:21:14;98757.06;;;26.19;78.96
1616;BME280;801;47.982;7.810;2022-10-16T16:23:41;98748.78;;;26.00;81.08
1616;BME280;801;47.982;7.810;2022-10-16T16:26:11;98748.13;;;25.55;84.17
1616;BME280;801;47.982;7.810;2022-10-16T16:28:39;98757.16;;;25.40;86.32
1616;BME280;801;47.982;7.810;2022-10-16T16:31:06;98748.72;;;25.17;89.44
1616;BME280;801;47.982;7.810;2022-10-16T16:33:33;98749.19;;;24.91;90.25
1616;BME280;801;47.982;7.810;2022-10-16T16:36:03;98759.72;;;24.73;93.19
1616;BME280;801;47.982;7.810;2022-10-16T16:38:31;98759.66;;;24.57;95.09
1616;BME280;801;47.982;7.810;2022-10-16T16:40:59;98760.03;;;24.43;97.07
1616;BME280;801;47.982;7.810;2022-10-16T16:43:25;98753.88;;;24.34;98.40
1616;BME280;801;47.982;7.810;2022-10-16T16:45:53;98769.00;;;24.15;100.00
1616;BME280;801;47.982;7.810;2022-10-16T16:48:20;98777.16;;;23.99;100.00
1616;BME280;801;47.982;7.810;2022-10-16T16:50:47;98775.91;;;23.60;100.00
1616;BME280;801;47.982;7.810;2022-10-16T16:53:15;98767.88;;;23.55;100.00
1616;BME280;801;47.982;7.810;2022-10-16T16:55:42;98777.13;;;23.38;100.00
1616;BME280;801;47.982;7.810;2022-10-16T16:58:08;98774.78;;;23.03;100.00
1616;BME280;801;47.982;7.810;2022-10-16T17:00:35;98775.13;;;22.80;100.00
1616;BME280;801;47.982;7.810;2022-10-16T17:03:02;98786.72;;;22.65;100.00
1616;BME280;801;47.982;7.810;2022-10-16T17:05:48;98786.56;;;22.62;100.00
1616;BME280;801;47.982;7.810;2022-10-16T17:08:32;98792.50;;;22.64;100.00
1616;BME280;801;47.982;7.810;2022-10-16T17:11:01;98795.47;;;22.58;100.00
1616;BME280;801;47.982;7.810;2022-10-16T17:14:01;98798.63;;;22.48;100.00
1616;BME280;801;47.982;7.810;2022-10-16T17:16:32;98806.97;;;22.31;100.00
1616;BME280;801;47.982;7.810;2022-10-16T17:19:10;98815.53;;;21.91;100.00
1616;BME280;801;47.982;7.810;2022-10-16T17:21:51;98816.00;;;21.93;100.00
1616;BME280;801;47.982;7.810;2022-10-16T17:24:23;98816.09;;;22.05;100.00
1616;BME280;801;47.982;7.810;2022-10-16T17:27:03;98820.56;;;22.10;100.00
1616;BME280;801;47.982;7.810;2022-10-16T17:29:30;98825.63;;;21.99;100.00
1616;BME280;801;47.982;7.810;2022-10-16T17:31:56;98823.50;;;22.05;100.00
1616;BME280;801;47.982;7.810;2022-10-16T17:34:24;98827.91;;;21.97;100.00
1616;BME280;801;47.982;7.810;2022-10-16T17:36:50;98821.66;;;21.88;100.00
1616;BME280;801;47.982;7.810;2022-10-16T17:39:17;98831.56;;;21.71;100.00
1616;BME280;801;47.982;7.810;2022-10-16T17:41:46;98837.03;;;21.71;100.00
1616;BME280;801;47.982;7.810;2022-10-16T17:44:13;98832.56;;;21.58;100.00
1616;BME280;801;47.982;7.810;2022-10-16T17:46:44;98833.22;;;21.55;100.00
1616;BME280;801;47.982;7.810;2022-10-16T17:49:11;98836.00;;;21.46;100.00
1616;BME280;801;47.982;7.810;2022-10-16T17:51:38;98843.88;;;21.30;100.00
1616;BME280;801;47.982;7.810;2022-10-16T17:54:05;98844.84;;;21.34;100.00
1616;BME280;801;47.982;7.810;2022-10-16T17:56:32;98846.63;;;21.22;100.00
1616;BME280;801;47.982;7.810;2022-10-16T17:59:01;98850.16;;;21.22;100.00
1616;BME280;801;47.982;7.810;2022-10-16T18:01:29;98854.19;;;21.16;100.00
1616;BME280;801;47.982;7.810;2022-10-16T18:03:57;98850.34;;;21.17;100.00
1616;BME280;801;47.982;7.810;2022-10-16T18:06:25;98860.00;;;20.97;100.00
1616;BME280;801;47.982;7.810;2022-10-16T18:08:52;98861.28;;;20.82;100.00
1616;BME280;801;47.982;7.810;2022-10-16T18:11:21;98862.59;;;20.67;100.00
1616;BME280;801;47.982;7.810;2022-10-16T18:13:51;98868.13;;;20.53;100.00
1616;BME280;801;47.982;7.810;2022-10-16T18:16:19;98872.78;;;20.44;100.00
1616;BME280;801;47.982;7.810;2022-10-16T18:18:46;98861.88;;;20.44;100.00
1616;BME280;801;47.982;7.810;2022-10-16T18:21:15;98866.97;;;20.20;100.00
1616;BME280;801;47.982;7.810;2022-10-16T18:23:42;98869.19;;;20.18;100.00
1616;BME280;801;47.982;7.810;2022-10-16T18:26:11;98871.09;;;20.08;100.00
1616;BME280;801;47.982;7.810;2022-10-16T18:28:41;98872.25;;;20.07;100.00
1616;BME280;801;47.982;7.810;2022-10-16T18:31:11;98876.56;;;20.08;100.00
1616;BME280;801;47.982;7.810;2022-10-16T18:33:40;98880.75;;;20.15;100.00
1616;BME280;801;47.982;7.810;2022-10-16T18:36:12;98880.75;;;20.15;100.00
1616;BME280;801;47.982;7.810;2022-10-16T18:38:39;98886.50;;;20.04;100.00
1616;BME280;801;47.982;7.810;2022-10-16T18:41:06;98892.94;;;20.08;100.00
1616;BME280;801;47.982;7.810;2022-10-16T18:43:33;98889.22;;;20.04;100.00
1616;BME280;801;47.982;7.810;2022-10-16T18:46:02;98889.09;;;20.09;100.00
1616;BME280;801;47.982;7.810;2022-10-16T18:48:29;98888.22;;;20.00;100.00
1616;BME280;801;47.982;7.810;2022-10-16T18:51:07;98892.28;;;20.11;100.00
1616;BME280;801;47.982;7.810;2022-10-16T18:53:34;98893.38;;;20.02;100.00
1616;BME280;801;47.982;7.810;2022-10-16T18:56:00;98896.25;;;19.97;100.00
1616;BME280;801;47.982;7.810;2022-10-16T18:58:27;98892.75;;;19.96;100.00
1616;BME280;801;47.982;7.810;2022-10-16T19:00:54;98890.72;;;19.79;100.00
1616;BME280;801;47.982;7.810;2022-10-16T19:03:21;98900.19;;;19.82;100.00
1616;BME280;801;47.982;7.810;2022-10-16T19:05:47;98898.59;;;19.81;100.00
1616;BME280;801;47.982;7.810;2022-10-16T19:08:15;98897.84;;;19.66;100.00
1616;BME280;801;47.982;7.810;2022-10-16T19:10:42;98893.53;;;19.65;100.00
1616;BME280;801;47.982;7.810;2022-10-16T19:13:08;98898.34;;;19.68;100.00
1616;BME280;801;47.982;7.810;2022-10-16T19:15:40;98905.53;;;19.64;100.00
1616;BME280;801;47.982;7.810;2022-10-16T19:18:07;98900.41;;;19.63;100.00
1616;BME280;801;47.982;7.810;2022-10-16T19:20:33;98908.34;;;19.50;100.00
1616;BME280;801;47.982;7.810;2022-10-16T19:23:00;98906.84;;;19.44;100.00
1616;BME280;801;47.982;7.810;2022-10-16T19:25:28;98914.41;;;19.47;100.00
1616;BME280;801;47.982;7.810;2022-10-16T19:27:54;98919.19;;;19.42;100.00
1616;BME280;801;47.982;7.810;2022-10-16T19:30:21;98919.69;;;19.44;100.00
1616;BME280;801;47.982;7.810;2022-10-16T19:32:49;98920.81;;;19.43;100.00
1616;BME280;801;47.982;7.810;2022-10-16T19:35:17;98932.81;;;19.42;100.00
1616;BME280;801;47.982;7.810;2022-10-16T19:37:43;98931.72;;;19.43;100.00
1616;BME280;801;47.982;7.810;2022-10-16T19:40:10;98933.50;;;19.47;100.00
1616;BME280;801;47.982;7.810;2022-10-16T19:42:38;98945.00;;;19.44;100.00
1616;BME280;801;47.982;7.810;2022-10-16T19:45:10;98954.13;;;19.40;100.00
1616;BME280;801;47.982;7.810;2022-10-16T19:47:36;98965.84;;;19.04;100.00
1616;BME280;801;47.982;7.810;2022-10-16T19:50:04;98972.16;;;19.13;100.00
1616;BME280;801;47.982;7.810;2022-10-16T19:52:34;98972.56;;;19.20;100.00
1616;BME280;801;47.982;7.810;2022-10-16T19:55:01;98977.75;;;19.08;100.00
1616;BME280;801;47.982;7.810;2022-10-16T19:57:27;98985.53;;;19.01;100.00
1616;BME280;801;47.982;7.810;2022-10-16T19:59:55;98986.53;;;19.05;100.00
1616;BME280;801;47.982;7.810;2022-10-16T20:02:22;98989.34;;;19.00;100.00
1616;BME280;801;47.982;7.810;2022-10-16T20:04:48;98986.16;;;18.98;100.00
1616;BME280;801;47.982;7.810;2022-10-16T20:07:15;98992.63;;;18.88;100.00
1616;BME280;801;47.982;7.810;2022-10-16T20:09:42;98991.09;;;18.82;100.00
1616;BME280;801;47.982;7.810;2022-10-16T20:12:09;99004.31;;;18.88;100.00
1616;BME280;801;47.982;7.810;2022-10-16T20:14:35;99005.50;;;18.68;100.00
1616;BME280;801;47.982;7.810;2022-10-16T20:17:03;99000.00;;;18.60;100.00
1616;BME280;801;47.982;7.810;2022-10-16T20:19:29;99006.41;;;18.64;100.00
1616;BME280;801;47.982;7.810;2022-10-16T20:21:56;99006.63;;;18.54;100.00
1616;BME280;801;47.982;7.810;2022-10-16T20:24:23;99007.63;;;18.44;100.00
1616;BME280;801;47.982;7.810;2022-10-16T20:26:49;99013.28;;;18.48;100.00
1616;BME280;801;47.982;7.810;2022-10-16T20:29:16;99013.38;;;18.42;100.00
1616;BME280;801;47.982;7.810;2022-10-16T20:31:43;99020.44;;;18.43;100.00
1616;BME280;801;47.982;7.810;2022-10-16T20:34:11;99017.94;;;18.33;100.00
1616;BME280;801;47.982;7.810;2022-10-16T20:36:39;99022.47;;;18.38;100.00
1616;BME280;801;47.982;7.810;2022-10-16T20:39:07;99023.44;;;18.28;100.00
1616;BME280;801;47.982;7.810;2022-10-16T20:41:34;99017.59;;;18.21;100.00
1616;BME280;801;47.982;7.810;2022-10-16T20:44:02;99018.00;;;18.14;100.00
1616;BME280;801;47.982;7.810;2022-10-16T20:46:28;99025.97;;;18.11;100.00
1616;BME280;801;47.982;7.810;2022-10-16T20:48:56;99021.69;;;18.04;100.00
1616;BME280;801;47.982;7.810;2022-10-16T20:51:26;99027.22;;;17.99;100.00
1616;BME280;801;47.982;7.810;2022-10-16T20:53:54;99019.06;;;17.99;100.00
1616;BME280;801;47.982;7.810;2022-10-16T20:56:22;99016.75;;;17.74;100.00
1616;BME280;801;47.982;7.810;2022-10-16T20:58:49;99022.66;;;17.62;100.00
1616;BME280;801;47.982;7.810;2022-10-16T21:01:17;99012.63;;;17.76;100.00
1616;BME280;801;47.982;7.810;2022-10-16T21:03:49;99005.59;;;17.75;100.00
1616;BME280;801;47.982;7.810;2022-10-16T21:06:16;99012.44;;;17.73;100.00
1616;BME280;801;47.982;7.810;2022-10-16T21:08:46;99006.47;;;17.71;100.00
1616;BME280;801;47.982;7.810;2022-10-16T21:11:15;99020.66;;;17.68;100.00
1616;BME280;801;47.982;7.810;2022-10-16T21:13:42;99011.91;;;17.71;100.00
1616;BME280;801;47.982;7.810;2022-10-16T21:16:10;99008.81;;;17.77;100.00
1616;BME280;801;47.982;7.810;2022-10-16T21:18:37;99013.22;;;17.73;100.00
1616;BME280;801;47.982;7.810;2022-10-16T21:21:04;99009.28;;;17.66;100.00
1616;BME280;801;47.982;7.810;2022-10-16T21:23:31;99010.81;;;17.72;100.00
1616;BME280;801;47.982;7.810;2022-10-16T21:25:59;99009.41;;;17.74;100.00
1616;BME280;801;47.982;7.810;2022-10-16T21:28:27;99011.22;;;17.79;100.00
1616;BME280;801;47.982;7.810;2022-10-16T21:30:54;99005.97;;;17.69;100.00
1616;BME280;801;47.982;7.810;2022-10-16T21:33:20;99014.63;;;17.71;100.00
1616;BME280;801;47.982;7.810;2022-10-16T21:35:47;99012.91;;;17.75;100.00
1616;BME280;801;47.982;7.810;2022-10-16T21:38:14;99015.63;;;17.75;100.00
1616;BME280;801;47.982;7.810;2022-10-16T21:40:40;99019.47;;;17.74;100.00
1616;BME280;801;47.982;7.810;2022-10-16T21:43:08;99029.28;;;17.56;100.00
1616;BME280;801;47.982;7.810;2022-10-16T21:45:35;99025.06;;;17.63;100.00
1616;BME280;801;47.982;7.810;2022-10-16T21:48:01;99031.53;;;17.68;100.00
1616;BME280;801;47.982;7.810;2022-10-16T21:50:28;99024.81;;;17.79;100.00
1616;BME280;801;47.982;7.810;2022-10-16T21:52:54;99021.81;;;17.80;100.00
1616;BME280;801;47.982;7.810;2022-10-16T21:55:21;99025.78;;;17.88;100.00
1616;BME280;801;47.982;7.810;2022-10-16T21:57:47;99028.53;;;17.69;100.00
